createdAt,value
2023-03-27T00:02:06.229Z,87.33
2023-03-27T00:04:32.834Z,87.78
2023-03-27T00:06:59.562Z,87.72
2023-03-27T00:09:27.827Z,87.14
2023-03-27T00:11:56.180Z,87.32
2023-03-27T00:14:24.033Z,88.18
2023-03-27T00:16:51.035Z,87.71
2023-03-27T00:19:18.891Z,87.76
2023-03-27T00:21:45.458Z,87.72
2023-03-27T00:24:12.105Z,87.98
2023-03-27T00:26:40.417Z,88.51
2023-03-27T00:29:07.951Z,88.75
2023-03-27T00:31:34.905Z,89.08
2023-03-27T00:34:01.844Z,88.89
2023-03-27T00:36:28.374Z,88.75
2023-03-27T00:38:54.887Z,88.88
2023-03-27T00:41:21.820Z,88.72
2023-03-27T00:43:48.998Z,88.92
2023-03-27T00:46:15.453Z,89.09
2023-03-27T00:48:42.543Z,89.08
2023-03-27T00:51:09.150Z,88.76
2023-03-27T00:53:36.085Z,88.18
2023-03-27T00:56:04.140Z,88.44
2023-03-27T00:58:38.430Z,89.03
2023-03-27T01:01:05.119Z,88.78
2023-03-27T01:03:32.284Z,88.76
2023-03-27T01:06:01.631Z,89.34
2023-03-27T01:08:33.651Z,89.58
2023-03-27T01:11:10.164Z,89.62
2023-03-27T01:14:07.520Z,89.39
2023-03-27T01:17:07.565Z,89.57
2023-03-27T01:19:55.294Z,89.95
2023-03-27T01:22:55.633Z,89.27
2023-03-27T01:25:28.217Z,89.14
2023-03-27T01:28:02.701Z,89.83
2023-03-27T01:30:39.347Z,89.50
2023-03-27T01:33:36.315Z,88.91
2023-03-27T01:36:25.984Z,88.94
2023-03-27T01:39:28.349Z,88.90
2023-03-27T01:42:26.382Z,88.17
2023-03-27T01:44:58.547Z,87.37
2023-03-27T01:47:33.698Z,86.16
2023-03-27T01:50:57.845Z,86.79
2023-03-27T01:53:25.401Z,86.73
2023-03-27T01:55:54.229Z,86.61
2023-03-27T01:58:23.078Z,86.11
2023-03-27T02:00:53.631Z,87.90
2023-03-27T02:03:33.672Z,86.98
2023-03-27T02:06:12.801Z,87.83
2023-03-27T02:08:45.118Z,87.37
2023-03-27T02:11:11.688Z,87.23
2023-03-27T02:13:40.826Z,86.98
2023-03-27T02:16:08.907Z,86.83
2023-03-27T02:18:37.683Z,86.96
2023-03-27T02:21:04.503Z,87.12
2023-03-27T02:23:31.019Z,86.90
2023-03-27T02:25:57.713Z,86.80
2023-03-27T02:28:46.851Z,87.36
2023-03-27T02:31:34.102Z,87.46
2023-03-27T02:34:13.248Z,88.45
2023-03-27T02:37:02.370Z,88.60
2023-03-27T02:39:52.694Z,88.27
2023-03-27T02:42:41.392Z,88.82
2023-03-27T02:45:19.933Z,88.71
2023-03-27T02:47:54.894Z,88.65
2023-03-27T02:50:32.095Z,88.56
2023-03-27T02:53:01.030Z,88.99
2023-03-27T02:55:38.965Z,89.39
2023-03-27T02:58:07.447Z,89.42
2023-03-27T03:00:39.513Z,89.63
2023-03-27T03:03:07.181Z,89.33
2023-03-27T03:05:33.813Z,89.36
2023-03-27T03:08:00.347Z,89.21
2023-03-27T03:10:26.874Z,89.87
2023-03-27T03:12:53.367Z,89.76
2023-03-27T03:15:20.169Z,90.29
2023-03-27T03:17:46.675Z,89.88
2023-03-27T03:20:13.504Z,89.72
2023-03-27T03:22:40.054Z,90.38
2023-03-27T03:25:07.647Z,90.17
2023-03-27T03:27:34.164Z,89.71
2023-03-27T03:30:01.009Z,89.60
2023-03-27T03:32:27.558Z,89.97
2023-03-27T03:34:54.112Z,90.40
2023-03-27T03:37:20.701Z,90.22
2023-03-27T03:39:47.165Z,90.19
2023-03-27T03:42:22.465Z,89.94
2023-03-27T03:44:49.786Z,90.71
2023-03-27T03:47:16.654Z,90.90
2023-03-27T03:49:43.159Z,91.21
2023-03-27T03:52:10.020Z,90.05
2023-03-27T03:54:38.582Z,90.54
2023-03-27T03:57:05.244Z,91.08
2023-03-27T03:59:32.112Z,90.25
2023-03-27T04:01:58.671Z,89.25
2023-03-27T04:04:25.447Z,89.16
2023-03-27T04:06:53.040Z,90.14
2023-03-27T04:09:19.726Z,90.13
2023-03-27T04:11:46.929Z,89.41
2023-03-27T04:14:13.542Z,88.78
2023-03-27T04:16:40.219Z,89.03
2023-03-27T04:19:07.077Z,88.66
2023-03-27T04:21:34.177Z,89.80
2023-03-27T04:24:02.653Z,89.98
2023-03-27T04:26:29.625Z,89.73
2023-03-27T04:28:56.279Z,90.42
2023-03-27T04:31:22.758Z,89.58
2023-03-27T04:33:52.256Z,88.19
2023-03-27T04:36:19.176Z,87.89
2023-03-27T04:38:47.872Z,86.87
2023-03-27T04:41:14.470Z,87.01
2023-03-27T04:43:41.825Z,87.64
2023-03-27T04:46:08.566Z,88.33
2023-03-27T04:48:38.323Z,89.83
2023-03-27T04:51:06.105Z,89.77
2023-03-27T04:53:34.659Z,88.78
2023-03-27T04:56:01.194Z,87.86
2023-03-27T04:58:28.388Z,87.66
2023-03-27T05:00:56.324Z,87.40
2023-03-27T05:03:27.825Z,88.46
2023-03-27T05:05:54.493Z,88.45
2023-03-27T05:08:20.989Z,88.84
2023-03-27T05:10:47.720Z,87.98
2023-03-27T05:13:14.261Z,88.50
2023-03-27T05:15:40.911Z,88.12
2023-03-27T05:18:09.122Z,88.49
2023-03-27T05:20:36.080Z,88.72
2023-03-27T05:23:02.612Z,88.68
2023-03-27T05:25:29.396Z,88.46
2023-03-27T05:27:56.335Z,89.82
2023-03-27T05:30:23.611Z,89.06
2023-03-27T05:32:52.562Z,89.36
2023-03-27T05:35:21.289Z,88.46
2023-03-27T05:37:48.580Z,87.76
2023-03-27T05:40:15.683Z,87.47
2023-03-27T05:42:45.412Z,86.73
2023-03-27T05:45:12.298Z,87.19
2023-03-27T05:47:51.928Z,86.07
2023-03-27T05:50:19.687Z,86.00
2023-03-27T05:52:46.387Z,85.94
2023-03-27T05:55:13.931Z,86.74
2023-03-27T05:57:41.130Z,85.97
2023-03-27T06:00:16.518Z,86.21
2023-03-27T06:02:43.691Z,84.52
2023-03-27T06:05:15.104Z,83.87
2023-03-27T06:07:45.295Z,84.31
2023-03-27T06:10:14.406Z,86.18
2023-03-27T06:12:41.613Z,86.65
2023-03-27T06:15:09.382Z,86.22
2023-03-27T06:17:36.395Z,85.48
2023-03-27T06:20:10.604Z,84.90
2023-03-27T06:22:45.629Z,84.78
2023-03-27T06:25:12.139Z,84.18
2023-03-27T06:27:39.174Z,84.60
2023-03-27T06:30:06.279Z,84.20
2023-03-27T06:32:33.129Z,83.68
2023-03-27T06:34:59.661Z,83.57
2023-03-27T06:37:26.184Z,82.98
2023-03-27T06:39:52.678Z,82.16
2023-03-27T06:42:19.179Z,82.09
2023-03-27T06:44:45.981Z,82.69
2023-03-27T06:47:12.880Z,82.88
2023-03-27T06:49:39.461Z,81.79
2023-03-27T06:52:06.752Z,82.92
2023-03-27T06:54:33.729Z,83.44
2023-03-27T06:57:01.587Z,83.71
2023-03-27T06:59:28.142Z,84.81
2023-03-27T07:01:54.693Z,84.26
2023-03-27T07:04:21.297Z,85.42
2023-03-27T07:06:48.895Z,84.55
2023-03-27T07:09:15.594Z,85.03
2023-03-27T07:11:42.468Z,83.77
2023-03-27T07:14:08.983Z,82.56
2023-03-27T07:16:35.684Z,82.52
2023-03-27T07:19:02.647Z,83.16
2023-03-27T07:21:29.541Z,82.86
2023-03-27T07:23:56.129Z,83.97
2023-03-27T07:26:22.621Z,84.07
2023-03-27T07:28:50.451Z,83.71
2023-03-27T07:33:46.422Z,84.56
2023-03-27T07:36:14.112Z,83.97
2023-03-27T07:38:42.421Z,82.81
2023-03-27T07:41:09.249Z,83.07
2023-03-27T07:43:35.878Z,81.88
2023-03-27T07:46:03.273Z,82.29
2023-03-27T07:48:30.460Z,81.56
2023-03-27T07:51:13.340Z,81.86
2023-03-27T07:53:41.677Z,80.12
2023-03-27T07:56:08.825Z,79.47
2023-03-27T07:58:35.435Z,79.42
2023-03-27T08:01:02.589Z,79.56
2023-03-27T08:03:30.554Z,79.16
2023-03-27T08:05:58.924Z,77.41
2023-03-27T08:08:26.107Z,76.68
2023-03-27T08:10:56.786Z,76.73
2023-03-27T08:13:23.753Z,77.29
2023-03-27T08:15:50.254Z,75.91
2023-03-27T08:18:16.779Z,74.92
2023-03-27T08:20:43.281Z,74.62
2023-03-27T08:23:09.873Z,74.99
2023-03-27T08:25:36.417Z,73.31
2023-03-27T08:28:03.041Z,73.52
2023-03-27T08:30:29.935Z,73.78
2023-03-27T08:32:56.865Z,74.27
2023-03-27T08:35:23.440Z,73.58
2023-03-27T08:37:50.077Z,73.80
2023-03-27T08:40:34.577Z,73.34
2023-03-27T08:43:06.096Z,73.25
2023-03-27T08:45:42.875Z,72.50
2023-03-27T08:48:57.636Z,73.93
2023-03-27T08:51:27.416Z,71.46
2023-03-27T08:54:03.106Z,71.79
2023-03-27T08:56:29.620Z,71.89
2023-03-27T08:58:56.149Z,72.51
2023-03-27T09:01:32.080Z,72.49
2023-03-27T09:04:17.595Z,72.55
2023-03-27T09:06:56.557Z,72.71
2023-03-27T09:09:39.228Z,71.39
2023-03-27T09:12:38.940Z,71.59
2023-03-27T09:15:12.066Z,70.84
2023-03-27T09:17:44.019Z,71.89
2023-03-27T09:20:19.594Z,72.45
2023-03-27T09:22:57.984Z,72.44
2023-03-27T09:25:30.178Z,72.60
2023-03-27T09:27:56.998Z,71.79
2023-03-27T09:30:33.757Z,72.15
2023-03-27T09:33:03.812Z,70.92
2023-03-27T09:35:30.403Z,66.74
2023-03-27T09:37:59.945Z,67.65
2023-03-27T09:40:51.568Z,66.46
2023-03-27T09:43:24.421Z,66.01
2023-03-27T09:45:51.663Z,67.79
2023-03-27T09:48:50.438Z,68.14
2023-03-27T09:51:43.047Z,64.95
2023-03-27T09:54:10.160Z,66.42
2023-03-27T09:56:38.761Z,67.30
2023-03-27T09:59:24.208Z,65.21
2023-03-27T10:01:52.712Z,66.41
2023-03-27T10:04:20.929Z,66.52
2023-03-27T10:06:49.455Z,61.02
2023-03-27T10:09:30.233Z,62.61
2023-03-27T10:12:23.210Z,63.74
2023-03-27T10:14:52.426Z,63.15
2023-03-27T10:17:28.274Z,60.67
2023-03-27T10:20:00.428Z,59.06
2023-03-27T10:22:31.957Z,54.91
2023-03-27T10:25:00.280Z,55.52
2023-03-27T10:27:30.463Z,51.89
2023-03-27T10:29:57.694Z,51.15
2023-03-27T10:32:46.507Z,52.54
2023-03-27T10:35:46.059Z,53.26
2023-03-27T10:38:16.948Z,52.57
2023-03-27T10:40:44.801Z,53.62
2023-03-27T10:43:13.249Z,54.07
2023-03-27T10:45:53.468Z,54.40
2023-03-27T10:48:31.738Z,53.09
2023-03-27T10:51:01.528Z,52.13
2023-03-27T10:53:37.405Z,51.24
2023-03-27T10:56:08.899Z,51.64
2023-03-27T10:58:58.376Z,51.59
2023-03-27T11:01:30.398Z,53.01
2023-03-27T11:04:20.863Z,52.35
2023-03-27T11:06:48.597Z,49.29
2023-03-27T11:09:31.037Z,48.91
2023-03-27T11:12:05.887Z,48.27
2023-03-27T11:14:56.984Z,49.15
2023-03-27T11:17:38.888Z,49.65
2023-03-27T11:20:08.479Z,49.69
2023-03-27T11:22:40.832Z,50.52
2023-03-27T11:25:21.282Z,49.18
2023-03-27T11:28:12.884Z,50.81
2023-03-27T11:30:48.442Z,50.84
2023-03-27T11:33:39.313Z,49.46
2023-03-27T11:36:41.564Z,48.31
2023-03-27T11:39:15.240Z,46.60
2023-03-27T11:41:43.798Z,45.44
2023-03-27T11:44:10.680Z,45.31
2023-03-27T11:47:04.020Z,45.93
2023-03-27T11:49:39.493Z,45.60
2023-03-27T11:52:19.450Z,45.24
2023-03-27T11:55:06.787Z,47.71
2023-03-27T11:58:08.573Z,47.49
2023-03-27T12:00:39.208Z,47.67
2023-03-27T12:03:13.899Z,45.84
2023-03-27T12:06:02.046Z,48.63
2023-03-27T12:08:46.092Z,48.93
2023-03-27T12:11:12.705Z,48.38
2023-03-27T12:14:17.732Z,47.59
2023-03-27T12:17:00.255Z,47.99
2023-03-27T12:19:29.750Z,48.63
2023-03-27T12:22:24.710Z,47.78
2023-03-27T12:25:31.042Z,46.30
2023-03-27T12:28:24.006Z,44.67
2023-03-27T12:30:56.863Z,45.55
2023-03-27T12:33:47.088Z,44.96
2023-03-27T12:36:16.439Z,45.12
2023-03-27T12:38:42.994Z,45.35
2023-03-27T12:41:12.898Z,48.08
2023-03-27T12:43:44.675Z,48.18
2023-03-27T12:46:24.447Z,46.75
2023-03-27T12:48:53.944Z,46.28
2023-03-27T12:51:35.426Z,47.86
2023-03-27T12:54:21.667Z,49.60
2023-03-27T12:57:08.092Z,50.83
2023-03-27T12:59:39.545Z,52.18
2023-03-27T13:02:11.670Z,50.15
2023-03-27T13:05:26.151Z,47.71
2023-03-27T13:08:07.121Z,47.13
2023-03-27T13:10:51.486Z,48.25
2023-03-27T13:13:24.608Z,48.65
2023-03-27T13:16:15.912Z,47.05
2023-03-27T13:18:58.755Z,44.73
2023-03-27T13:21:43.663Z,46.59
2023-03-27T13:24:47.925Z,45.97
2023-03-27T13:27:29.610Z,46.58
2023-03-27T13:29:56.131Z,43.73
2023-03-27T13:32:36.457Z,45.13
2023-03-27T13:35:20.209Z,43.29
2023-03-27T13:37:49.413Z,43.14
2023-03-27T13:40:24.365Z,43.99
2023-03-27T13:42:52.518Z,42.67
2023-03-27T13:45:21.920Z,42.50
2023-03-27T13:47:51.179Z,43.56
2023-03-27T13:51:05.916Z,44.13
2023-03-27T13:54:07.570Z,47.50
2023-03-27T13:56:46.327Z,52.79
2023-03-27T13:59:13.002Z,55.73
2023-03-27T14:02:04.528Z,54.09
2023-03-27T14:04:38.231Z,53.99
2023-03-27T14:07:23.612Z,54.13
2023-03-27T14:09:56.413Z,54.11
2023-03-27T14:12:41.513Z,51.61
2023-03-27T14:15:23.690Z,51.04
2023-03-27T14:18:12.172Z,48.37
2023-03-27T14:20:40.371Z,47.06
2023-03-27T14:23:12.914Z,48.04
2023-03-27T14:25:43.854Z,48.80
2023-03-27T14:28:26.181Z,48.38
2023-03-27T14:30:54.898Z,48.28
2023-03-27T14:33:21.685Z,47.34
2023-03-27T14:36:03.782Z,47.46
2023-03-27T14:38:31.407Z,45.77
2023-03-27T14:40:59.123Z,46.86
2023-03-27T14:43:26.635Z,48.59
2023-03-27T14:45:54.418Z,47.66
2023-03-27T14:48:37.966Z,50.99
2023-03-27T14:51:09.443Z,52.63
2023-03-27T14:53:37.177Z,54.98
2023-03-27T14:56:10.630Z,54.78
2023-03-27T14:58:40.511Z,63.60
2023-03-27T15:01:08.270Z,68.10
2023-03-27T15:03:35.530Z,68.40
2023-03-27T15:06:13.397Z,66.50
2023-03-27T15:08:40.018Z,67.79
2023-03-27T15:11:10.937Z,67.69
2023-03-27T15:13:37.496Z,65.59
2023-03-27T15:16:06.551Z,64.62
2023-03-27T15:18:36.074Z,64.87
2023-03-27T15:21:08.771Z,62.88
2023-03-27T15:23:44.966Z,62.27
2023-03-27T15:26:19.145Z,61.45
2023-03-27T15:29:01.568Z,61.50
2023-03-27T15:31:30.061Z,61.10
2023-03-27T15:34:21.163Z,61.28
2023-03-27T15:36:50.791Z,61.34
2023-03-27T15:39:23.917Z,60.84
2023-03-27T15:41:51.689Z,60.75
2023-03-27T15:44:22.314Z,61.38
2023-03-27T15:46:57.006Z,60.10
2023-03-27T15:49:34.927Z,62.20
2023-03-27T15:52:31.502Z,63.78
2023-03-27T15:54:59.920Z,65.29
2023-03-27T15:57:29.256Z,67.62
2023-03-27T16:00:00.176Z,69.43
2023-03-27T16:02:28.121Z,70.44
2023-03-27T16:04:56.107Z,72.21
2023-03-27T16:07:30.368Z,73.00
2023-03-27T16:10:02.694Z,72.92
2023-03-27T16:12:53.464Z,73.52
2023-03-27T16:15:41.920Z,74.70
2023-03-27T16:18:19.458Z,75.92
2023-03-27T16:20:45.937Z,76.41
2023-03-27T16:23:12.481Z,76.80
2023-03-27T16:25:40.799Z,77.10
2023-03-27T16:28:07.779Z,75.77
2023-03-27T16:30:36.128Z,75.86
2023-03-27T16:33:03.375Z,74.94
2023-03-27T16:35:31.872Z,75.12
2023-03-27T16:37:58.552Z,74.49
2023-03-27T16:40:25.305Z,73.13
2023-03-27T16:42:51.778Z,72.55
2023-03-27T16:45:18.248Z,72.13
2023-03-27T16:47:47.077Z,71.81
2023-03-27T16:50:19.070Z,71.53
2023-03-27T16:52:45.870Z,71.48
2023-03-27T16:55:13.855Z,71.81
2023-03-27T16:57:41.704Z,71.94
2023-03-27T17:00:09.646Z,71.71
2023-03-27T17:02:39.171Z,71.18
2023-03-27T17:05:06.880Z,69.86
2023-03-27T17:07:33.517Z,70.55
2023-03-27T17:10:00.037Z,70.40
2023-03-27T17:12:28.646Z,69.97
2023-03-27T17:14:56.186Z,71.43
2023-03-27T17:17:23.612Z,70.99
2023-03-27T17:19:50.378Z,70.86
2023-03-27T17:22:16.846Z,70.06
2023-03-27T17:24:55.425Z,69.48
2023-03-27T17:27:24.038Z,70.23
2023-03-27T17:29:51.261Z,71.64
2023-03-27T17:32:17.783Z,73.55
2023-03-27T17:34:44.257Z,73.50
2023-03-27T17:37:12.459Z,73.28
2023-03-27T17:39:39.160Z,74.01
2023-03-27T17:42:06.523Z,74.43
2023-03-27T17:44:33.073Z,75.04
2023-03-27T17:47:00.474Z,74.67
2023-03-27T17:49:29.472Z,74.72
2023-03-27T17:51:56.169Z,74.71
2023-03-27T17:54:22.698Z,74.95
2023-03-27T17:56:49.339Z,75.06
2023-03-27T17:59:15.883Z,75.22
2023-03-27T18:01:44.551Z,74.79
2023-03-27T18:04:12.132Z,75.76
2023-03-27T18:06:38.773Z,75.88
2023-03-27T18:09:05.243Z,76.21
2023-03-27T18:11:32.394Z,75.72
2023-03-27T18:13:59.073Z,77.25
2023-03-27T18:16:25.866Z,77.69
2023-03-27T18:18:54.780Z,78.43
2023-03-27T18:21:21.690Z,78.36
2023-03-27T18:23:48.165Z,79.09
2023-03-27T18:26:15.150Z,79.02
2023-03-27T18:28:41.735Z,80.03
2023-03-27T18:31:09.622Z,79.33
2023-03-27T18:33:36.317Z,79.25
2023-03-27T18:36:03.052Z,79.98
2023-03-27T18:38:29.615Z,79.72
2023-03-27T18:40:56.847Z,80.29
2023-03-27T18:43:23.812Z,80.52
2023-03-27T18:46:01.052Z,80.66
2023-03-27T18:48:28.291Z,81.61
2023-03-27T18:50:59.213Z,81.94
2023-03-27T18:53:25.910Z,81.66
2023-03-27T18:55:52.777Z,81.98
2023-03-27T18:58:19.722Z,82.39
2023-03-27T19:00:46.374Z,82.33
2023-03-27T19:03:18.031Z,82.98
2023-03-27T19:05:44.985Z,82.54
2023-03-27T19:08:11.628Z,83.04
2023-03-27T19:10:38.493Z,83.44
2023-03-27T19:13:05.061Z,83.58
2023-03-27T19:15:31.910Z,84.19
2023-03-27T19:17:58.551Z,84.18
2023-03-27T19:20:25.611Z,83.82
2023-03-27T19:22:52.163Z,83.97
2023-03-27T19:25:19.699Z,84.57
2023-03-27T19:27:46.234Z,84.42
2023-03-27T19:30:15.239Z,84.03
2023-03-27T19:32:41.851Z,84.19
2023-03-27T19:35:09.336Z,83.86
2023-03-27T19:37:36.714Z,83.87
2023-03-27T19:40:05.409Z,83.22
2023-03-27T19:42:32.022Z,83.26
2023-03-27T19:44:58.512Z,82.81
2023-03-27T19:47:25.086Z,83.24
2023-03-27T19:49:51.560Z,82.60
2023-03-27T19:52:19.739Z,81.69
2023-03-27T19:54:46.475Z,81.85
2023-03-27T19:57:13.052Z,81.64
2023-03-27T19:59:39.619Z,81.61
2023-03-27T20:02:06.670Z,81.94
2023-03-27T20:04:33.193Z,81.94
2023-03-27T20:07:01.677Z,81.34
2023-03-27T20:09:28.243Z,80.55
2023-03-27T20:11:55.068Z,81.02
2023-03-27T20:14:21.633Z,82.07
2023-03-27T20:16:48.269Z,82.48
2023-03-27T20:19:16.670Z,82.60
2023-03-27T20:21:43.474Z,82.69
2023-03-27T20:24:11.590Z,82.52
2023-03-27T20:26:39.266Z,83.21
2023-03-27T20:29:10.336Z,82.95
2023-03-27T20:31:37.072Z,82.85
2023-03-27T20:34:04.710Z,83.55
2023-03-27T20:36:34.683Z,83.71
2023-03-27T20:39:06.113Z,84.13
2023-03-27T20:41:33.703Z,83.94
2023-03-27T20:44:00.161Z,83.41
2023-03-27T20:46:30.380Z,83.70
2023-03-27T20:48:57.046Z,83.52
2023-03-27T20:51:24.202Z,83.01
2023-03-27T20:53:55.657Z,83.29
2023-03-27T20:56:22.555Z,83.08
2023-03-27T20:58:49.043Z,83.33
2023-03-27T21:01:19.304Z,83.23
2023-03-27T21:03:49.593Z,83.62
2023-03-27T21:06:18.508Z,83.26
2023-03-27T21:08:45.337Z,83.37
2023-03-27T21:11:11.828Z,83.37
2023-03-27T21:13:38.396Z,82.91
2023-03-27T21:16:05.283Z,82.58
2023-03-27T21:18:31.780Z,83.00
2023-03-27T21:20:58.315Z,82.73
2023-03-27T21:23:24.758Z,82.70
2023-03-27T21:25:51.730Z,82.24
2023-03-27T21:28:18.333Z,81.94
2023-03-27T21:30:47.083Z,81.60
2023-03-27T21:33:17.893Z,81.89
2023-03-27T21:35:47.422Z,81.87
2023-03-27T21:38:15.385Z,81.61
2023-03-27T21:40:41.982Z,81.04
2023-03-27T21:43:08.983Z,81.11
2023-03-27T21:45:36.112Z,80.30
2023-03-27T21:48:02.735Z,80.24
2023-03-27T21:50:29.383Z,79.91
2023-03-27T21:52:55.844Z,80.13
2023-03-27T21:55:22.341Z,80.07
2023-03-27T21:57:48.847Z,80.00
2023-03-27T22:00:15.746Z,80.25
2023-03-27T22:02:42.675Z,80.38
2023-03-27T22:05:09.625Z,80.36
2023-03-27T22:07:36.135Z,80.84
2023-03-27T22:10:05.366Z,80.92
2023-03-27T22:12:34.814Z,80.80
2023-03-27T22:15:01.325Z,80.55
2023-03-27T22:17:27.933Z,81.07
2023-03-27T22:19:54.701Z,81.40
2023-03-27T22:22:21.257Z,81.52
2023-03-27T22:24:47.722Z,81.71
2023-03-27T22:27:14.234Z,81.97
2023-03-27T22:29:40.711Z,81.40
2023-03-27T22:32:07.214Z,81.11
2023-03-27T22:34:34.307Z,81.36
2023-03-27T22:37:01.693Z,81.82
2023-03-27T22:39:28.300Z,82.10
2023-03-27T22:41:54.816Z,81.69
2023-03-27T22:44:21.555Z,81.86
2023-03-27T22:46:48.189Z,81.48
2023-03-27T22:49:14.863Z,81.89
2023-03-27T22:51:41.337Z,82.29
2023-03-27T22:54:07.844Z,82.00
2023-03-27T22:56:34.397Z,82.20
2023-03-27T22:59:00.937Z,82.54
2023-03-27T23:01:27.468Z,82.57
2023-03-27T23:03:54.406Z,82.84
2023-03-27T23:06:22.558Z,83.06
2023-03-27T23:08:49.474Z,83.62
2023-03-27T23:11:16.003Z,83.98
2023-03-27T23:13:42.715Z,84.12
2023-03-27T23:16:09.465Z,84.04
2023-03-27T23:18:36.298Z,84.30
2023-03-27T23:21:10.308Z,84.88
2023-03-27T23:23:37.486Z,84.16
2023-03-27T23:26:04.796Z,83.76
2023-03-27T23:28:32.894Z,83.91
2023-03-27T23:31:04.919Z,84.10
2023-03-27T23:33:37.142Z,84.48
2023-03-27T23:36:08.869Z,84.31
2023-03-27T23:38:35.516Z,83.97
2023-03-27T23:41:02.185Z,84.10
2023-03-27T23:43:29.013Z,84.00
2023-03-27T23:45:56.065Z,83.44
2023-03-27T23:48:23.208Z,82.94
2023-03-27T23:50:49.775Z,82.14
2023-03-27T23:53:16.262Z,82.56
2023-03-27T23:55:42.744Z,82.05
2023-03-27T23:58:09.296Z,82.10
